Time;durP1;ratioP1;P1;durP2;ratioP2;P2;SDS_P1;SDS_P2;PMS_P1;PMS_P2;Temp;Humidity;BMP_temperature;BMP_pressure;BME280_temperature;BME280_humidity;BME280_pressure;Samples;Min_cycle;Max_cycle;Signal;HPM_P1;HPM_P2
2021/10/23 15:34:44;;;;;;;;;;;9.60;59.20;;;;;;5106029;27;19923;-95
2021/10/23 15:37:11;;;;;;;;;;;9.40;60.50;;;;;;5105174;28;20011;-96
2021/10/23 15:39:42;;;;;;;;;;;9.40;61.50;;;;;;5071180;28;19909;-95
2021/10/23 15:42:12;;;;;;;;;;;9.50;62.00;;;;;;5071016;28;19909;-96
2021/10/23 15:44:38;;;;;;;;;;;9.60;62.30;;;;;;5072585;28;19912;-95
2021/10/23 15:47:06;;;;;;;;;;;9.60;62.30;;;;;;5071049;28;20357;-95
2021/10/23 16:23:51;;;;;;;;;;;8.80;59.80;;;;;;5105735;27;19913;-95
2021/10/23 16:26:16;;;;;;;;;;;8.70;61.10;;;;;;5105071;28;20004;-96
2021/10/23 16:33:14;;;;;;;;;;;8.70;61.90;;;;;;4990923;28;19914;-95
2021/10/23 16:35:40;;;;;;;;;;;8.70;62.80;;;;;;4988953;28;20012;-96
2021/10/23 16:38:05;;;;;;;;;;;8.70;63.20;;;;;;4989768;28;19963;-95
2021/10/23 16:40:31;;;;;;;;;;;8.70;63.50;;;;;;5001810;28;19914;-95
2021/10/23 16:42:57;;;;;;;;;;;8.70;63.80;;;;;;4988228;28;19945;-94
2021/10/23 16:45:22;;;;;;;;;;;8.70;63.90;;;;;;4983505;28;19914;-96
2021/10/23 16:47:48;;;;;;;;;;;8.80;64.10;;;;;;4985521;28;20005;-94
2021/10/23 16:50:13;;;;;;;;;;;8.70;64.10;;;;;;4988387;28;19911;-94
2021/10/23 16:52:39;;;;;;;;;;;8.80;64.30;;;;;;4988014;28;19940;-95
2021/10/23 16:55:05;;;;;;;;;;;8.70;64.40;;;;;;4987946;28;19914;-96
2021/10/23 16:57:30;;;;;;;;;;;8.70;64.40;;;;;;4988213;28;19911;-95
2021/10/23 16:59:56;;;;;;;;;;;8.70;64.40;;;;;;4987961;28;19960;-95
2021/10/23 17:02:24;;;;;;;;;;;8.70;64.30;;;;;;4988104;28;19921;-95
2021/10/23 17:15:14;;;;;;;;;;;8.40;62.00;;;;;;5155325;27;19919;-95
2021/10/23 17:17:40;;;;;;;;;;;8.30;63.10;;;;;;5136051;27;19911;-96
2021/10/23 17:20:06;;;;;;;;;;;8.20;63.60;;;;;;5132435;28;19915;-96
2021/10/23 17:22:32;;;;;;;;;;;8.20;64.00;;;;;;5111029;28;19908;-96
2021/10/23 17:24:58;;;;;;;;;;;8.10;64.30;;;;;;5094829;28;20339;-95
2021/10/23 17:27:24;;;;;;;;;;;8.10;64.50;;;;;;5094674;28;19916;-95
2021/10/23 17:29:49;;;;;;;;;;;8.10;64.60;;;;;;5131953;27;19907;-95
2021/10/23 17:32:15;;;;;;;;;;;8.10;64.70;;;;;;5129832;28;19912;-95
2021/10/23 17:34:40;;;;;;;;;;;8.00;64.70;;;;;;5120777;27;20279;-95
2021/10/23 17:37:06;;;;;;;;;;;8.00;64.70;;;;;;5135453;27;19907;-94
2021/10/23 17:39:32;;;;;;;;;;;8.00;64.80;;;;;;5122244;28;19912;-95
2021/10/23 17:41:58;;;;;;;;;;;8.00;64.80;;;;;;5131988;28;19991;-92
2021/10/23 17:44:23;;;;;;;;;;;8.00;64.90;;;;;;5132544;27;19947;-92
2021/10/23 17:46:49;;;;;;;;;;;8.00;64.90;;;;;;5130947;28;20252;-92
2021/10/23 17:49:15;;;;;;;;;;;8.00;65.00;;;;;;5107396;28;19958;-92
2021/10/23 17:51:40;;;;;;;;;;;8.00;65.00;;;;;;5112835;28;19950;-91
2021/10/23 17:54:06;;;;;;;;;;;7.90;65.10;;;;;;5132063;28;20278;-93
2021/10/23 17:56:34;;;;;;;;;;;7.90;65.10;;;;;;5115994;27;20268;-93
2021/10/23 17:59:01;;;;;;;;;;;7.90;65.00;;;;;;5132432;27;20427;-91
2021/10/23 18:01:26;;;;;;;;;;;7.90;65.00;;;;;;5121802;27;19954;-93
2021/10/23 18:03:52;;;;;;;;;;;7.80;65.00;;;;;;5117150;27;19918;-93
2021/10/23 18:06:17;;;;;;;;;;;7.80;65.00;;;;;;5128112;27;19951;-91
2021/10/23 18:08:43;;;;;;;;;;;7.80;65.00;;;;;;5126502;27;19907;-95
2021/10/23 18:11:09;;;;;;;;;;;7.70;65.00;;;;;;5120958;28;19908;-94
2021/10/23 18:13:37;;;;;;;;;;;7.70;65.20;;;;;;5134817;27;19923;-95
2021/10/23 18:16:15;;;;;;;;;;;7.60;65.20;;;;;;5128847;27;20363;-96
2021/10/23 18:18:41;;;;;;;;;;;7.60;65.40;;;;;;5136155;27;19931;-95
2021/10/23 18:21:06;;;;;;;;;;;7.50;65.40;;;;;;5135143;27;20355;-95
2021/10/23 18:23:33;;;;;;;;;;;7.40;65.50;;;;;;5116640;28;19916;-94
2021/10/23 18:25:59;;;;;;;;;;;7.40;65.80;;;;;;5111431;27;19908;-94
2021/10/23 18:28:26;;;;;;;;;;;7.30;65.50;;;;;;5109781;28;19915;-95
2021/10/23 18:30:53;;;;;;;;;;;7.30;65.60;;;;;;5112851;28;20257;-94
2021/10/23 18:33:19;;;;;;;;;;;7.20;65.60;;;;;;5098055;28;19916;-93
2021/10/23 18:35:45;;;;;;;;;;;7.10;65.40;;;;;;5087807;28;20009;-95
2021/10/23 18:38:15;;;;;;;;;;;7.10;65.50;;;;;;5102065;28;20441;-96
2021/10/23 18:40:42;;;;;;;;;;;7.00;65.60;;;;;;5121725;27;19915;-96
2021/10/23 18:43:08;;;;;;;;;;;6.90;65.80;;;;;;5121776;28;19907;-96
2021/10/23 18:45:33;;;;;;;;;;;6.90;66.10;;;;;;5112333;27;19915;-94
2021/10/23 18:47:59;;;;;;;;;;;6.80;66.20;;;;;;5122606;27;19954;-95
2021/10/23 18:50:26;;;;;;;;;;;6.70;66.30;;;;;;5142088;27;20406;-95
2021/10/23 18:52:52;;;;;;;;;;;6.70;66.50;;;;;;5122069;27;19908;-93
2021/10/23 18:55:18;;;;;;;;;;;6.60;66.60;;;;;;5106905;28;19912;-93
2021/10/23 18:57:44;;;;;;;;;;;6.50;66.80;;;;;;5100032;28;19907;-96
2021/10/23 19:00:10;;;;;;;;;;;6.40;66.80;;;;;;5103090;27;19909;-95
2021/10/23 19:02:39;;;;;;;;;;;6.30;67.00;;;;;;5120666;27;19918;-96
2021/10/23 19:05:05;;;;;;;;;;;6.20;67.30;;;;;;5098206;28;19908;-95
2021/10/23 19:07:31;;;;;;;;;;;6.10;67.40;;;;;;5079296;28;19916;-96
2021/10/23 19:09:57;;;;;;;;;;;6.00;67.60;;;;;;5079487;28;19916;-95
2021/10/23 19:12:22;;;;;;;;;;;5.90;67.70;;;;;;5082523;28;19908;-95
